Time;durP1;ratioP1;P1;durP2;ratioP2;P2;SDS_P1;SDS_P2;PMS_P1;PMS_P2;Temp;Humidity;BMP_temperature;BMP_pressure;BME280_temperature;BME280_humidity;BME280_pressure;Samples;Min_cycle;Max_cycle;Signal;HPM_P1;HPM_P2
2022/03/02 00:00:04;;;;;;;11.20;6.73;;;3.30;99.90;;;;;;5078953;28;20477;-49
2022/03/02 00:02:32;;;;;;;10.90;7.20;;;3.30;99.90;;;;;;5079324;28;20927;-47
2022/03/02 00:04:58;;;;;;;9.90;6.93;;;3.30;99.90;;;;;;5078977;28;20423;-46
2022/03/02 00:07:27;;;;;;;22.30;8.33;;;3.20;99.90;;;;;;5078545;28;20455;-52
2022/03/02 00:09:53;;;;;;;12.43;7.40;;;3.20;99.90;;;;;;5078711;28;20478;-44
2022/03/02 00:12:20;;;;;;;14.07;7.53;;;3.20;99.90;;;;;;5078713;28;20493;-48
2022/03/02 00:14:47;;;;;;;10.13;7.50;;;3.10;99.90;;;;;;5078822;28;20459;-46
2022/03/02 00:17:13;;;;;;;12.80;7.70;;;3.00;99.90;;;;;;5078526;28;20491;-46
2022/03/02 00:19:42;;;;;;;15.23;8.00;;;3.00;99.90;;;;;;5078127;28;20459;-50
2022/03/02 00:22:11;;;;;;;14.03;9.30;;;3.00;99.90;;;;;;5078450;28;20440;-50
2022/03/02 00:24:38;;;;;;;18.20;8.90;;;3.10;99.90;;;;;;5078121;28;20467;-45
2022/03/02 00:27:05;;;;;;;18.70;7.53;;;3.10;99.90;;;;;;5078427;28;20469;-50
2022/03/02 00:29:37;;;;;;;14.90;7.63;;;3.00;99.90;;;;;;5077349;28;20443;-56
2022/03/02 00:32:04;;;;;;;12.87;8.60;;;3.00;99.90;;;;;;5078078;28;20427;-48
2022/03/02 00:34:31;;;;;;;14.43;7.77;;;3.00;99.90;;;;;;5077854;28;20451;-45
2022/03/02 00:36:59;;;;;;;17.37;8.87;;;3.00;99.90;;;;;;5077681;28;20521;-50
2022/03/02 00:39:25;;;;;;;13.90;8.27;;;3.00;99.90;;;;;;5078119;28;20423;-49
2022/03/02 00:41:52;;;;;;;20.83;9.90;;;2.90;99.90;;;;;;5078061;28;20455;-44
2022/03/02 00:44:25;;;;;;;14.60;8.23;;;2.90;99.90;;;;;;5077654;28;20467;-51
2022/03/02 00:46:52;;;;;;;22.83;10.00;;;2.90;99.90;;;;;;5077878;28;20420;-44
2022/03/02 00:49:20;;;;;;;12.77;8.03;;;2.90;99.90;;;;;;5077814;28;20432;-49
2022/03/02 00:51:47;;;;;;;15.80;9.40;;;2.90;99.90;;;;;;5078543;28;20436;-50
2022/03/02 00:54:15;;;;;;;13.73;8.00;;;2.90;99.90;;;;;;5077678;28;20521;-44
2022/03/02 00:56:41;;;;;;;13.07;8.53;;;2.90;99.90;;;;;;5078072;28;20467;-47
2022/03/02 00:59:08;;;;;;;12.60;7.57;;;2.90;99.90;;;;;;5077851;28;20509;-45
2022/03/02 01:01:35;;;;;;;15.93;8.73;;;3.00;99.90;;;;;;5077146;28;20461;-48
2022/03/02 01:04:03;;;;;;;15.60;8.70;;;2.90;99.90;;;;;;5077591;28;20435;-45
2022/03/02 01:06:30;;;;;;;12.07;8.43;;;2.90;99.90;;;;;;5077480;28;20455;-50
2022/03/02 01:08:56;;;;;;;14.37;7.80;;;2.90;99.90;;;;;;5077506;28;20447;-54
2022/03/02 01:11:24;;;;;;;20.97;9.60;;;2.90;99.90;;;;;;5077520;28;20474;-52
2022/03/02 01:13:54;;;;;;;17.07;9.00;;;2.80;99.90;;;;;;5077890;28;20514;-48
2022/03/02 01:16:21;;;;;;;16.07;9.10;;;2.80;99.90;;;;;;5077103;28;20459;-48
2022/03/02 01:18:47;;;;;;;16.87;8.03;;;2.80;99.90;;;;;;5077277;28;20443;-53
2022/03/02 01:21:16;;;;;;;15.40;9.80;;;2.80;99.90;;;;;;5077309;28;20568;-53
2022/03/02 01:23:43;;;;;;;16.40;9.03;;;2.80;99.90;;;;;;5077076;28;20456;-54
2022/03/02 01:26:10;;;;;;;19.17;9.70;;;2.90;99.90;;;;;;5076594;28;20509;-50
2022/03/02 01:28:38;;;;;;;16.13;8.30;;;2.90;99.90;;;;;;5076305;28;20471;-49
2022/03/02 01:31:05;;;;;;;12.37;7.33;;;2.90;99.90;;;;;;5076557;28;20549;-55
2022/03/02 01:33:31;;;;;;;14.03;7.30;;;2.80;99.90;;;;;;5076443;28;20534;-54
2022/03/02 01:35:58;;;;;;;12.50;7.90;;;2.80;99.90;;;;;;5076281;28;20486;-54
2022/03/02 01:38:25;;;;;;;16.90;8.30;;;2.80;99.90;;;;;;5076768;28;20443;-50
2022/03/02 01:40:52;;;;;;;15.33;9.63;;;2.80;99.90;;;;;;5076307;28;20486;-51
2022/03/02 01:43:18;;;;;;;13.83;9.30;;;2.70;99.90;;;;;;5075476;28;20435;-53
2022/03/02 01:45:49;;;;;;;20.90;9.97;;;2.70;99.90;;;;;;5076094;28;20432;-54
2022/03/02 01:48:16;;;;;;;12.73;8.70;;;2.70;99.90;;;;;;5076147;28;20447;-54
2022/03/02 01:50:42;;;;;;;20.20;9.97;;;2.70;99.90;;;;;;5075775;28;20439;-54
2022/03/02 01:53:09;;;;;;;14.50;8.13;;;2.60;99.90;;;;;;5075936;28;20549;-52
2022/03/02 01:55:36;;;;;;;16.83;9.80;;;2.60;99.90;;;;;;5076045;28;20447;-55
2022/03/02 01:58:03;;;;;;;16.37;9.60;;;2.60;99.90;;;;;;5075604;28;20447;-51
2022/03/02 02:00:29;;;;;;;17.47;8.43;;;2.60;99.90;;;;;;5076181;28;20684;-56
2022/03/02 02:02:57;;;;;;;20.77;10.30;;;2.50;99.90;;;;;;5076070;28;20439;-53
2022/03/02 02:05:25;;;;;;;16.07;9.87;;;2.50;99.90;;;;;;5076082;28;20451;-57
2022/03/02 02:07:53;;;;;;;18.43;8.40;;;2.50;99.90;;;;;;5075982;28;20436;-56
2022/03/02 02:10:22;;;;;;;16.33;9.17;;;2.50;99.90;;;;;;5075698;28;20431;-57
2022/03/02 02:12:52;;;;;;;17.33;8.77;;;2.50;99.90;;;;;;5075450;28;20451;-52
2022/03/02 02:15:19;;;;;;;21.27;8.47;;;2.50;99.90;;;;;;5075470;28;20435;-58
2022/03/02 02:17:47;;;;;;;16.77;9.03;;;2.50;99.90;;;;;;5075572;28;20471;-53
2022/03/02 02:20:15;;;;;;;11.37;8.20;;;2.50;99.90;;;;;;5075107;28;20497;-51
2022/03/02 02:22:46;;;;;;;19.13;9.70;;;2.50;99.90;;;;;;5076025;28;20470;-51
2022/03/02 02:25:14;;;;;;;14.27;8.50;;;2.50;99.90;;;;;;5076079;28;20419;-57
2022/03/02 02:27:45;;;;;;;11.77;7.37;;;2.50;99.90;;;;;;5075638;28;20501;-54
2022/03/02 02:30:13;;;;;;;13.17;9.40;;;2.50;99.90;;;;;;5075449;28;20463;-51
2022/03/02 02:32:43;;;;;;;19.43;9.13;;;2.50;99.90;;;;;;5075218;28;20438;-51
2022/03/02 02:35:11;;;;;;;18.57;8.80;;;2.40;99.90;;;;;;5075396;28;20451;-52
2022/03/02 02:37:39;;;;;;;14.13;7.37;;;2.40;99.90;;;;;;5075641;28;20462;-48
2022/03/02 02:40:10;;;;;;;13.97;8.37;;;2.40;99.90;;;;;;5075353;28;20420;-54
2022/03/02 02:42:37;;;;;;;12.50;9.17;;;2.40;99.90;;;;;;5075371;28;20519;-54
2022/03/02 02:45:05;;;;;;;10.80;7.60;;;2.40;99.90;;;;;;5075424;28;20461;-52
2022/03/02 02:47:32;;;;;;;14.17;8.10;;;2.40;99.90;;;;;;5075886;28;20493;-57
2022/03/02 02:49:58;;;;;;;8.47;6.53;;;2.40;99.90;;;;;;5075145;28;20430;-49
2022/03/02 02:52:25;;;;;;;15.80;9.67;;;2.40;99.90;;;;;;5075445;28;20423;-46
2022/03/02 02:54:52;;;;;;;19.60;9.00;;;2.50;99.90;;;;;;5073945;28;20510;-50
2022/03/02 02:57:20;;;;;;;12.60;8.37;;;2.50;99.90;;;;;;5075429;28;20428;-48
2022/03/02 02:59:50;;;;;;;16.10;9.87;;;2.50;99.90;;;;;;5075919;28;20501;-55
2022/03/02 03:02:16;;;;;;;12.10;7.43;;;2.50;99.90;;;;;;5075290;28;20471;-53
2022/03/02 03:04:43;;;;;;;16.43;7.67;;;2.50;99.90;;;;;;5075178;28;20459;-53
2022/03/02 03:07:12;;;;;;;22.87;10.20;;;2.40;99.90;;;;;;5075056;28;20449;-55
2022/03/02 03:09:41;;;;;;;13.87;8.67;;;2.50;99.90;;;;;;5075258;28;20435;-51
2022/03/02 03:12:09;;;;;;;13.00;7.37;;;2.50;99.90;;;;;;5075153;28;20463;-54
2022/03/02 03:14:37;;;;;;;19.70;9.63;;;2.50;99.90;;;;;;5075035;28;20538;-49
2022/03/02 03:17:04;;;;;;;13.43;7.53;;;2.50;99.90;;;;;;5075023;28;20439;-49
2022/03/02 03:19:30;;;;;;;18.03;8.43;;;2.50;99.90;;;;;;5075100;28;20973;-54
2022/03/02 03:22:03;;;;;;;19.40;8.40;;;2.50;99.90;;;;;;5075682;28;20469;-54
2022/03/02 03:24:30;;;;;;;16.00;8.83;;;2.40;99.90;;;;;;5075377;28;20456;-56
2022/03/02 03:26:59;;;;;;;12.00;7.40;;;2.40;99.90;;;;;;5075377;28;20509;-53
2022/03/02 03:29:29;;;;;;;16.67;9.60;;;2.40;99.90;;;;;;5075210;28;20470;-52
2022/03/02 03:31:57;;;;;;;19.63;9.20;;;2.40;99.90;;;;;;5075815;28;20522;-53
2022/03/02 03:34:26;;;;;;;12.30;7.83;;;2.30;99.90;;;;;;5075525;28;20479;-54
2022/03/02 03:36:53;;;;;;;19.00;9.33;;;2.30;99.90;;;;;;5075757;28;20462;-55
2022/03/02 03:39:24;;;;;;;15.73;7.90;;;2.30;99.90;;;;;;5075506;28;20912;-55
2022/03/02 03:41:55;;;;;;;17.20;7.83;;;2.30;99.90;;;;;;5075119;28;20438;-55
2022/03/02 03:44:22;;;;;;;18.03;9.10;;;2.30;99.90;;;;;;5074982;28;20443;-51
2022/03/02 03:46:48;;;;;;;15.63;8.77;;;2.20;99.90;;;;;;5074743;28;20447;-56
2022/03/02 03:49:18;;;;;;;13.27;9.63;;;2.20;99.90;;;;;;5074586;28;20537;-53
2022/03/02 03:51:45;;;;;;;18.57;9.00;;;2.20;99.90;;;;;;5074798;28;20462;-56
2022/03/02 03:54:13;;;;;;;13.00;7.40;;;2.20;99.90;;;;;;5074257;28;20509;-54
2022/03/02 03:56:40;;;;;;;15.47;10.80;;;2.20;99.90;;;;;;5074663;28;20477;-52
2022/03/02 03:59:07;;;;;;;15.03;9.30;;;2.20;99.90;;;;;;5074681;28;20423;-57
2022/03/02 04:01:35;;;;;;;13.50;8.97;;;2.20;99.90;;;;;;5074671;28;20730;-51
2022/03/02 04:04:02;;;;;;;13.43;7.50;;;2.20;99.90;;;;;;5075000;28;20436;-55
2022/03/02 04:06:30;;;;;;;17.00;8.77;;;2.20;99.90;;;;;;5077631;28;20454;-56
2022/03/02 04:08:57;;;;;;;13.93;8.60;;;2.20;99.90;;;;;;5078173;28;20459;-50
2022/03/02 04:11:24;;;;;;;16.90;9.03;;;2.10;99.90;;;;;;5078364;28;20439;-57
2022/03/02 04:13:53;;;;;;;15.83;9.67;;;2.20;99.90;;;;;;5078170;28;20504;-51
2022/03/02 04:16:19;;;;;;;15.33;8.03;;;2.20;99.90;;;;;;5078422;28;20481;-50
2022/03/02 04:18:46;;;;;;;18.70;9.00;;;2.20;99.90;;;;;;5077557;28;20467;-57
2022/03/02 04:21:13;;;;;;;13.57;8.63;;;2.20;99.90;;;;;;5078950;28;20437;-56
2022/03/02 04:23:42;;;;;;;17.27;9.67;;;2.30;99.90;;;;;;5078810;28;20436;-52
2022/03/02 04:26:12;;;;;;;14.37;7.83;;;2.30;99.90;;;;;;5078379;28;20466;-57
2022/03/02 04:28:39;;;;;;;16.80;8.70;;;2.40;99.90;;;;;;5078734;28;20415;-48
2022/03/02 04:31:06;;;;;;;18.00;9.17;;;2.40;99.90;;;;;;5078781;28;20479;-46
2022/03/02 04:33:33;;;;;;;16.60;9.70;;;2.30;99.90;;;;;;5078537;28;20419;-50
2022/03/02 04:36:00;;;;;;;15.53;10.60;;;2.30;99.90;;;;;;5078377;28;20481;-54
2022/03/02 04:38:27;;;;;;;11.33;8.23;;;2.20;99.90;;;;;;5078606;28;20445;-49
2022/03/02 04:40:55;;;;;;;26.47;9.57;;;2.20;99.90;;;;;;5078387;28;20435;-48
2022/03/02 04:43:21;;;;;;;19.83;9.20;;;2.20;99.90;;;;;;5078563;28;20493;-52
2022/03/02 04:45:48;;;;;;;19.67;9.00;;;2.10;99.90;;;;;;5078396;28;20440;-52
2022/03/02 04:48:16;;;;;;;17.33;8.23;;;2.10;99.90;;;;;;5078700;28;20440;-53
2022/03/02 04:50:44;;;;;;;19.63;9.53;;;2.10;99.90;;;;;;5077956;28;20458;-50
2022/03/02 04:53:11;;;;;;;16.00;9.70;;;2.10;99.90;;;;;;5079071;28;20487;-50
2022/03/02 04:55:38;;;;;;;18.60;10.13;;;2.10;99.90;;;;;;5078947;28;20498;-56
2022/03/02 04:58:06;;;;;;;23.57;9.70;;;2.10;99.90;;;;;;5078744;28;20440;-56
2022/03/02 05:00:35;;;;;;;18.37;10.80;;;2.10;99.90;;;;;;5076728;28;20533;-48
2022/03/02 05:03:05;;;;;;;19.33;8.97;;;2.10;99.90;;;;;;5079794;28;20447;-57
2022/03/02 05:05:33;;;;;;;21.63;10.40;;;2.20;99.90;;;;;;5070099;28;20435;-49
2022/03/02 05:08:04;;;;;;;26.47;11.10;;;2.20;99.90;;;;;;5085002;28;20459;-51
2022/03/02 05:10:31;;;;;;;20.40;11.00;;;2.10;99.90;;;;;;5080125;28;20443;-49
2022/03/02 05:12:58;;;;;;;18.90;9.93;;;2.20;99.90;;;;;;5076322;28;20523;-49
2022/03/02 05:15:26;;;;;;;17.50;9.90;;;2.20;99.90;;;;;;5072764;28;20495;-52
2022/03/02 05:17:53;;;;;;;24.07;11.27;;;2.20;99.90;;;;;;5075144;28;20478;-56
2022/03/02 05:20:21;;;;;;;16.83;9.97;;;2.20;99.90;;;;;;5075314;28;20558;-56
2022/03/02 05:22:49;;;;;;;14.60;10.23;;;2.20;99.90;;;;;;5073513;28;20502;-50
2022/03/02 05:25:16;;;;;;;24.03;10.33;;;2.20;99.90;;;;;;5073891;28;20448;-51
2022/03/02 05:27:43;;;;;;;24.30;10.83;;;2.20;99.90;;;;;;5071242;28;20486;-49
2022/03/02 05:30:11;;;;;;;18.90;11.23;;;2.20;99.90;;;;;;5072390;28;20435;-54
2022/03/02 05:32:40;;;;;;;18.23;10.37;;;2.20;99.90;;;;;;5072873;28;20490;-52
2022/03/02 05:35:08;;;;;;;18.57;9.83;;;2.20;99.90;;;;;;5068215;28;20501;-48
2022/03/02 05:37:35;;;;;;;23.97;10.20;;;2.20;99.90;;;;;;5069743;28;20477;-50
2022/03/02 05:40:04;;;;;;;20.17;11.10;;;2.30;99.90;;;;;;5075159;28;20427;-49
2022/03/02 05:42:33;;;;;;;22.00;11.87;;;2.20;99.90;;;;;;5074117;28;20447;-53
2022/03/02 05:45:00;;;;;;;31.37;11.40;;;2.30;99.90;;;;;;5071678;28;20447;-54
2022/03/02 05:47:27;;;;;;;16.50;9.77;;;2.30;99.90;;;;;;5073813;28;20447;-49
2022/03/02 05:49:55;;;;;;;24.63;10.60;;;2.30;99.90;;;;;;5072679;28;20459;-54
2022/03/02 05:52:22;;;;;;;18.27;10.60;;;2.30;99.90;;;;;;5070765;28;20470;-51
2022/03/02 05:54:49;;;;;;;26.80;12.00;;;2.30;99.90;;;;;;5072491;28;20505;-53
2022/03/02 05:57:15;;;;;;;18.50;11.50;;;2.30;99.90;;;;;;5074965;28;20486;-53
2022/03/02 05:59:42;;;;;;;26.10;11.17;;;2.30;99.90;;;;;;5075658;28;20482;-54
2022/03/02 06:02:09;;;;;;;22.30;10.90;;;2.30;99.90;;;;;;5074817;28;20477;-59
2022/03/02 06:04:35;;;;;;;28.50;10.27;;;2.30;99.90;;;;;;5069542;28;20436;-56
2022/03/02 06:07:04;;;;;;;22.40;10.60;;;2.30;99.90;;;;;;5069585;28;20482;-53
2022/03/02 06:09:31;;;;;;;16.47;10.40;;;2.40;99.90;;;;;;5068633;28;20468;-58
2022/03/02 06:12:00;;;;;;;16.37;9.67;;;2.30;99.90;;;;;;5074718;28;20435;-56
2022/03/02 06:14:27;;;;;;;14.80;10.40;;;2.40;99.90;;;;;;5074501;28;20846;-49
2022/03/02 06:17:00;;;;;;;21.43;10.90;;;2.30;99.90;;;;;;5074993;28;20454;-54
2022/03/02 06:19:28;;;;;;;22.33;12.87;;;2.30;99.90;;;;;;5071812;28;20472;-58
2022/03/02 06:21:59;;;;;;;19.03;10.57;;;2.20;99.90;;;;;;5060137;28;20538;-56
2022/03/02 06:24:28;;;;;;;22.63;11.17;;;2.20;99.90;;;;;;5057509;28;20486;-57
2022/03/02 06:26:57;;;;;;;19.20;11.70;;;2.30;99.90;;;;;;5054971;28;20465;-56
2022/03/02 06:29:23;;;;;;;18.23;10.40;;;2.30;99.90;;;;;;5059799;28;20451;-58
2022/03/02 06:31:50;;;;;;;21.50;12.10;;;2.30;99.90;;;;;;5068846;28;20919;-54
2022/03/02 06:34:19;;;;;;;26.40;13.10;;;2.30;99.90;;;;;;5072475;28;20475;-57
2022/03/02 06:36:49;;;;;;;27.53;12.30;;;2.30;99.90;;;;;;5070187;28;20443;-56
2022/03/02 06:39:16;;;;;;;21.07;10.40;;;2.40;99.90;;;;;;5068561;28;21056;-54
2022/03/02 06:41:54;;;;;;;21.63;11.90;;;2.40;99.90;;;;;;5061687;28;20505;-54
2022/03/02 06:44:27;;;;;;;24.87;12.67;;;2.50;99.90;;;;;;5055443;28;20430;-57
2022/03/02 06:47:00;;;;;;;21.50;12.13;;;2.50;99.90;;;;;;5061168;28;20420;-52
2022/03/02 06:49:34;;;;;;;19.03;11.73;;;2.60;99.90;;;;;;5072518;28;20408;-55
2022/03/02 06:52:03;;;;;;;20.47;11.90;;;3.40;99.90;;;;;;5073264;28;20462;-53
2022/03/02 06:54:33;;;;;;;26.50;13.90;;;2.60;99.90;;;;;;5073836;28;20470;-55
2022/03/02 06:57:03;;;;;;;24.50;12.20;;;2.60;99.90;;;;;;5073610;28;20432;-58
2022/03/02 06:59:38;;;;;;;32.90;17.60;;;2.60;99.90;;;;;;5071750;28;20466;-56
2022/03/02 07:02:06;;;;;;;22.97;14.27;;;2.70;99.90;;;;;;5073279;28;20263;-53
2022/03/02 07:04:37;;;;;;;28.17;12.53;;;2.80;99.90;;;;;;5073486;28;20521;-58
2022/03/02 07:07:04;;;;;;;21.13;12.27;;;2.80;99.90;;;;;;5073534;28;20444;-55
2022/03/02 07:09:33;;;;;;;27.57;13.73;;;2.80;99.90;;;;;;5073762;28;20467;-51
2022/03/02 07:12:02;;;;;;;23.63;13.60;;;2.80;99.90;;;;;;5073379;28;20454;-53
2022/03/02 07:14:30;;;;;;;26.77;14.80;;;2.80;99.90;;;;;;5073357;28;20475;-53
2022/03/02 07:16:58;;;;;;;35.40;17.67;;;2.80;99.90;;;;;;5073746;28;20467;-52
2022/03/02 07:19:27;;;;;;;26.87;12.77;;;2.80;99.90;;;;;;5072826;28;20467;-53
2022/03/02 07:21:55;;;;;;;19.73;11.77;;;2.90;99.90;;;;;;5073052;28;20472;-55
2022/03/02 07:24:24;;;;;;;22.70;13.70;;;2.90;99.90;;;;;;5073054;28;20424;-51
2022/03/02 07:26:55;;;;;;;23.80;12.73;;;3.00;99.90;;;;;;5073021;28;20436;-49
2022/03/02 07:29:26;;;;;;;23.70;13.07;;;3.00;99.90;;;;;;5072635;28;20431;-58
2022/03/02 07:31:56;;;;;;;33.20;14.07;;;3.10;99.90;;;;;;5072391;28;20454;-57
2022/03/02 07:34:25;;;;;;;26.50;13.40;;;3.10;99.90;;;;;;5072768;28;20490;-61
2022/03/02 07:36:52;;;;;;;21.43;13.10;;;3.10;99.90;;;;;;5073416;28;20427;-60
2022/03/02 07:39:19;;;;;;;26.70;15.87;;;3.10;99.90;;;;;;5071738;28;20455;-53
2022/03/02 07:41:46;;;;;;;23.33;13.03;;;3.20;99.90;;;;;;5075584;28;20450;-57
2022/03/02 07:44:13;;;;;;;29.60;13.57;;;3.30;99.90;;;;;;5073769;28;20454;-56
2022/03/02 07:46:41;;;;;;;37.73;16.70;;;3.40;99.90;;;;;;5073749;28;20501;-55
2022/03/02 07:49:08;;;;;;;24.53;14.10;;;3.50;99.90;;;;;;5074913;28;20455;-54
2022/03/02 07:51:36;;;;;;;25.57;15.80;;;3.50;99.90;;;;;;5074596;28;20446;-54
2022/03/02 07:54:06;;;;;;;23.57;14.97;;;3.50;99.90;;;;;;5074167;28;20770;-57
2022/03/02 07:56:34;;;;;;;33.07;15.53;;;3.60;99.90;;;;;;5074111;28;20487;-55
2022/03/02 07:59:04;;;;;;;33.93;14.30;;;3.60;99.90;;;;;;5073829;28;20463;-51
2022/03/02 08:01:35;;;;;;;29.83;15.40;;;3.70;99.90;;;;;;5073593;28;20550;-58
2022/03/02 08:04:05;;;;;;;31.90;18.13;;;3.80;99.90;;;;;;5074691;28;20542;-55
2022/03/02 08:06:36;;;;;;;32.00;17.50;;;3.80;99.90;;;;;;5073555;28;20438;-54
2022/03/02 08:09:05;;;;;;;30.83;15.00;;;3.90;99.90;;;;;;5073794;28;20431;-56
2022/03/02 08:11:33;;;;;;;28.80;17.57;;;3.90;99.90;;;;;;5073547;28;20463;-53
2022/03/02 08:14:01;;;;;;;37.30;18.03;;;3.90;99.90;;;;;;5074422;28;20462;-55
2022/03/02 08:16:29;;;;;;;28.23;15.47;;;4.00;99.90;;;;;;5073267;28;20550;-59
2022/03/02 08:18:57;;;;;;;30.70;17.00;;;4.10;99.90;;;;;;5073241;28;20435;-55
2022/03/02 08:21:29;;;;;;;39.47;17.80;;;4.20;99.90;;;;;;5073068;28;20437;-58
2022/03/02 08:23:58;;;;;;;31.00;17.10;;;4.20;99.90;;;;;;5073286;28;20463;-54
2022/03/02 08:26:26;;;;;;;28.97;16.77;;;4.20;99.90;;;;;;5073305;28;20440;-58
2022/03/02 08:28:56;;;;;;;29.13;15.87;;;4.30;99.90;;;;;;5072379;28;20478;-60
2022/03/02 08:31:24;;;;;;;37.43;14.80;;;4.40;99.90;;;;;;5072696;28;20428;-54
2022/03/02 08:33:52;;;;;;;31.27;15.40;;;4.50;99.90;;;;;;5072601;28;20450;-58
2022/03/02 08:36:21;;;;;;;31.03;15.50;;;4.60;99.90;;;;;;5072875;28;20489;-58
2022/03/02 08:38:54;;;;;;;27.57;14.87;;;4.70;99.90;;;;;;5072628;28;20474;-59
2022/03/02 08:41:21;;;;;;;31.03;15.87;;;4.70;99.90;;;;;;5071323;28;20472;-58
2022/03/02 08:43:49;;;;;;;29.63;15.37;;;5.50;99.90;;;;;;5071103;28;20447;-58
2022/03/02 08:46:16;;;;;;;30.47;15.70;;;4.90;99.90;;;;;;5070932;28;20455;-55
2022/03/02 08:48:43;;;;;;;27.57;14.60;;;4.90;99.90;;;;;;5070647;28;20420;-59
2022/03/02 08:51:09;;;;;;;32.40;15.50;;;5.00;99.90;;;;;;5069770;28;20452;-59
2022/03/02 08:53:40;;;;;;;32.37;17.77;;;5.20;99.90;;;;;;5069493;28;20482;-56
2022/03/02 08:56:09;;;;;;;31.40;18.50;;;5.30;99.90;;;;;;5069506;28;20521;-54
2022/03/02 08:58:38;;;;;;;30.53;14.70;;;5.50;99.90;;;;;;5069155;28;20447;-58
2022/03/02 09:01:05;;;;;;;22.13;14.70;;;5.60;99.90;;;;;;5069017;28;20485;-53
2022/03/02 09:03:34;;;;;;;28.63;14.00;;;5.70;99.90;;;;;;5067755;28;20443;-57
2022/03/02 09:06:03;;;;;;;38.70;16.57;;;5.80;99.90;;;;;;5067995;28;20482;-54
2022/03/02 09:08:33;;;;;;;23.67;13.47;;;6.00;99.90;;;;;;5067292;28;20891;-58
2022/03/02 09:11:00;;;;;;;30.53;17.53;;;6.20;99.90;;;;;;5066843;28;20474;-58
2022/03/02 09:13:29;;;;;;;29.00;17.20;;;6.30;99.90;;;;;;5066019;28;20455;-59
2022/03/02 09:15:58;;;;;;;31.10;16.13;;;6.50;99.90;;;;;;5065747;28;20486;-59
2022/03/02 09:18:25;;;;;;;28.70;16.33;;;6.70;99.90;;;;;;5065655;28;20851;-59
2022/03/02 09:20:55;;;;;;;21.77;13.07;;;6.80;99.90;;;;;;5064562;28;20485;-60
2022/03/02 09:23:24;;;;;;;28.97;14.60;;;6.90;99.90;;;;;;5064832;28;20459;-57
2022/03/02 09:25:51;;;;;;;36.20;13.57;;;7.10;99.90;;;;;;5064097;28;20483;-55
2022/03/02 09:28:18;;;;;;;25.63;12.80;;;7.20;99.90;;;;;;5062237;28;20443;-54
2022/03/02 09:30:47;;;;;;;24.77;13.00;;;7.20;98.80;;;;;;5061767;28;20447;-56
2022/03/02 09:33:15;;;;;;;28.33;14.57;;;7.30;97.80;;;;;;5061564;28;20447;-57
2022/03/02 09:35:44;;;;;;;26.33;15.07;;;7.30;97.70;;;;;;5061121;28;20490;-55
2022/03/02 09:38:12;;;;;;;22.53;13.60;;;7.30;96.90;;;;;;5063272;28;20561;-54
2022/03/02 09:40:43;;;;;;;27.20;17.10;;;7.40;96.80;;;;;;5063783;28;20473;-56
2022/03/02 09:43:19;;;;;;;23.90;15.00;;;7.40;96.70;;;;;;5063135;28;20443;-57
2022/03/02 09:45:50;;;;;;;32.53;15.27;;;7.40;95.20;;;;;;5061144;28;20428;-56
2022/03/02 09:48:28;;;;;;;34.83;13.17;;;7.50;95.70;;;;;;5061279;28;20495;-57
2022/03/02 09:50:59;;;;;;;20.73;14.17;;;7.80;95.10;;;;;;5061320;28;20427;-56
2022/03/02 09:53:28;;;;;;;21.13;13.97;;;8.00;93.70;;;;;;5060794;28;20498;-56
2022/03/02 09:55:56;;;;;;;25.43;13.80;;;8.00;92.50;;;;;;5061439;28;20486;-56
2022/03/02 09:58:25;;;;;;;22.73;12.77;;;8.00;92.70;;;;;;5060760;28;20452;-57
2022/03/02 10:00:56;;;;;;;25.33;13.50;;;8.10;92.40;;;;;;5060891;28;20467;-54
2022/03/02 10:03:27;;;;;;;26.33;13.30;;;8.40;91.10;;;;;;5059819;28;20493;-55
2022/03/02 10:05:54;;;;;;;28.37;13.80;;;8.70;91.60;;;;;;5060419;28;20518;-58
2022/03/02 10:08:24;;;;;;;22.57;12.57;;;9.10;86.10;;;;;;5062675;28;20468;-55
2022/03/02 10:10:56;;;;;;;24.60;12.97;;;9.40;82.10;;;;;;5060460;28;20489;-56
2022/03/02 10:13:23;;;;;;;22.93;13.67;;;9.70;80.00;;;;;;5059692;28;20842;-55
2022/03/02 10:15:50;;;;;;;25.87;13.57;;;10.10;71.40;;;;;;5059429;28;20508;-56
2022/03/02 10:18:20;;;;;;;23.53;13.60;;;10.30;70.20;;;;;;5059827;28;20475;-55
2022/03/02 10:20:49;;;;;;;27.13;13.03;;;10.50;67.90;;;;;;5058813;28;20459;-56
2022/03/02 10:23:33;;;;;;;25.40;14.60;;;10.80;66.50;;;;;;5058867;28;20561;-55
2022/03/02 10:26:04;;;;;;;25.60;15.17;;;11.30;65.70;;;;;;5059234;28;20515;-57
2022/03/02 10:28:35;;;;;;;26.90;12.40;;;11.70;63.10;;;;;;5059071;28;20467;-56
2022/03/02 10:31:26;;;;;;;33.63;15.60;;;12.10;60.70;;;;;;5058768;28;20431;-54
2022/03/02 10:33:56;;;;;;;39.13;15.60;;;12.60;58.30;;;;;;5058874;28;20555;-55
2022/03/02 10:36:27;;;;;;;20.73;13.70;;;13.00;56.90;;;;;;5056360;28;20529;-59
2022/03/02 10:39:06;;;;;;;23.73;12.70;;;13.60;56.20;;;;;;5055289;28;20428;-58
2022/03/02 10:41:37;;;;;;;18.07;12.83;;;14.20;53.70;;;;;;5055281;28;20508;-54
2022/03/02 10:44:06;;;;;;;27.43;15.00;;;14.40;50.90;;;;;;5054809;28;20465;-53
2022/03/02 10:46:34;;;;;;;25.77;12.93;;;14.70;50.10;;;;;;5054710;28;20501;-55
2022/03/02 10:49:09;;;;;;;18.33;13.50;;;15.00;49.40;;;;;;5054322;28;20920;-55
2022/03/02 10:51:37;;;;;;;18.97;13.27;;;15.20;49.10;;;;;;5055406;28;20545;-57
2022/03/02 10:54:08;;;;;;;25.80;15.07;;;15.50;48.80;;;;;;5054798;28;20451;-53
2022/03/02 10:56:39;;;;;;;22.83;14.23;;;15.90;46.90;;;;;;5054698;28;20479;-57
2022/03/02 10:59:08;;;;;;;24.23;13.80;;;16.00;45.50;;;;;;5054440;28;20478;-53
2022/03/02 11:01:35;;;;;;;23.10;13.60;;;16.10;46.00;;;;;;5054707;28;20502;-66
2022/03/02 11:04:01;;;;;;;26.47;14.50;;;16.10;45.40;;;;;;5055027;28;20836;-59
2022/03/02 11:06:30;;;;;;;24.30;15.37;;;16.30;45.00;;;;;;5054309;28;20448;-55
2022/03/02 11:09:00;;;;;;;25.40;16.20;;;16.20;44.90;;;;;;5053942;28;20498;-56
2022/03/02 11:11:27;;;;;;;23.40;13.67;;;15.90;45.20;;;;;;5054390;28;20518;-53
2022/03/02 11:13:55;;;;;;;25.00;15.67;;;15.60;45.60;;;;;;5055026;28;20486;-56
2022/03/02 11:16:24;;;;;;;21.80;14.37;;;15.40;45.70;;;;;;5057040;28;20483;-54
2022/03/02 11:18:52;;;;;;;27.17;13.57;;;15.30;46.40;;;;;;5058178;28;20496;-55
2022/03/02 11:21:24;;;;;;;23.97;13.73;;;15.10;45.40;;;;;;5058227;28;20939;-53
2022/03/02 11:23:54;;;;;;;23.27;13.93;;;14.70;45.30;;;;;;5058516;28;20482;-60
2022/03/02 11:26:24;;;;;;;22.30;14.37;;;14.20;45.40;;;;;;5059557;28;20481;-55
2022/03/02 11:28:53;;;;;;;25.67;14.97;;;13.90;47.00;;;;;;5058174;28;20481;-55
2022/03/02 11:31:23;;;;;;;24.17;13.60;;;13.60;46.50;;;;;;5057862;28;20789;-49
2022/03/02 11:33:51;;;;;;;20.50;12.97;;;13.20;46.70;;;;;;5058195;28;20473;-56
2022/03/02 11:36:20;;;;;;;23.83;13.63;;;12.70;47.70;;;;;;5058828;28;20474;-55
2022/03/02 11:38:51;;;;;;;21.07;11.40;;;12.20;47.50;;;;;;5058308;28;20533;-54
2022/03/02 11:41:32;;;;;;;17.37;11.30;;;11.90;47.90;;;;;;5058261;28;20501;-56
2022/03/02 11:43:59;;;;;;;18.20;12.17;;;11.60;48.60;;;;;;5057759;28;20932;-53
2022/03/02 11:46:25;;;;;;;20.40;12.33;;;11.20;49.10;;;;;;5058201;28;20493;-56
2022/03/02 11:48:53;;;;;;;16.87;10.13;;;11.00;49.00;;;;;;5058179;28;20475;-60
2022/03/02 11:51:23;;;;;;;17.60;10.97;;;10.90;48.80;;;;;;5057923;28;20549;-53
2022/03/02 11:53:53;;;;;;;24.60;12.07;;;10.70;48.10;;;;;;5057685;28;20475;-56
2022/03/02 11:56:26;;;;;;;26.83;10.77;;;10.70;48.50;;;;;;5057742;28;20463;-54
2022/03/02 11:59:06;;;;;;;17.47;10.77;;;10.50;47.50;;;;;;5057746;28;20451;-54
2022/03/02 12:01:42;;;;;;;15.93;9.87;;;10.30;48.20;;;;;;5058776;28;20435;-51
2022/03/02 12:04:10;;;;;;;14.47;10.30;;;10.20;48.60;;;;;;5057452;28;20477;-53
2022/03/02 12:06:44;;;;;;;14.87;8.50;;;10.10;48.10;;;;;;5057640;28;20520;-53
2022/03/02 12:09:22;;;;;;;16.53;9.93;;;10.10;48.30;;;;;;5057497;28;20478;-57
2022/03/02 12:11:51;;;;;;;17.17;8.07;;;10.20;48.30;;;;;;5057747;28;20477;-56
2022/03/02 12:14:17;;;;;;;16.43;8.50;;;10.30;47.00;;;;;;5057879;28;20471;-52
2022/03/02 12:16:47;;;;;;;13.70;9.13;;;10.10;46.30;;;;;;5057382;28;20489;-60
2022/03/02 12:19:23;;;;;;;15.37;9.20;;;10.00;46.50;;;;;;5056867;28;20505;-57
2022/03/02 12:21:52;;;;;;;17.80;8.33;;;9.80;47.20;;;;;;5057540;28;20435;-53
2022/03/02 12:24:28;;;;;;;16.73;8.37;;;9.80;48.20;;;;;;5057383;28;20481;-54
2022/03/02 12:27:05;;;;;;;15.70;8.30;;;9.90;48.70;;;;;;5057013;28;20502;-59
2022/03/02 12:29:32;;;;;;;14.57;8.60;;;9.90;48.00;;;;;;5058031;28;20776;-57
2022/03/02 12:32:14;;;;;;;13.50;8.10;;;10.00;47.20;;;;;;5057248;28;20474;-55
2022/03/02 12:34:42;;;;;;;25.53;9.80;;;10.10;47.00;;;;;;5057161;28;20463;-55
2022/03/02 12:37:10;;;;;;;15.00;7.80;;;10.20;47.00;;;;;;5057046;28;20483;-51
2022/03/02 12:39:37;;;;;;;15.13;9.03;;;10.20;45.60;;;;;;5057898;28;20471;-57
2022/03/02 12:42:08;;;;;;;16.30;9.70;;;10.20;45.80;;;;;;5057231;28;20463;-51
2022/03/02 12:44:36;;;;;;;11.60;7.53;;;10.30;45.90;;;;;;5056927;28;20482;-57
2022/03/02 12:47:07;;;;;;;14.23;8.00;;;10.30;44.90;;;;;;5056636;28;20908;-55